sensor_id;sensor_type;location;lat;lon;timestamp;temperature;humidity
12817;DHT22;6473;51.552;6.716;2023-02-01T00:05:56;5.00;99.90
12817;DHT22;6473;51.552;6.716;2023-02-01T00:08:23;4.90;99.90
12817;DHT22;6473;51.552;6.716;2023-02-01T00:10:59;4.90;99.90
12817;DHT22;6473;51.552;6.716;2023-02-01T00:13:28;5.00;99.90
12817;DHT22;6473;51.552;6.716;2023-02-01T00:16:02;5.00;99.90
12817;DHT22;6473;51.552;6.716;2023-02-01T00:33:14;5.00;99.90
12817;DHT22;6473;51.552;6.716;2023-02-01T00:35:40;5.00;99.90
12817;DHT22;6473;51.552;6.716;2023-02-01T00:40:35;5.10;99.90
12817;DHT22;6473;51.552;6.716;2023-02-01T00:43:03;5.10;99.90
12817;DHT22;6473;51.552;6.716;2023-02-01T00:45:32;5.10;99.90
12817;DHT22;6473;51.552;6.716;2023-02-01T00:52:53;5.30;99.90
12817;DHT22;6473;51.552;6.716;2023-02-01T01:00:17;5.30;99.90
12817;DHT22;6473;51.552;6.716;2023-02-01T01:07:40;5.40;99.90
12817;DHT22;6473;51.552;6.716;2023-02-01T01:10:07;5.50;99.90
12817;DHT22;6473;51.552;6.716;2023-02-01T01:17:31;5.50;99.90
12817;DHT22;6473;51.552;6.716;2023-02-01T01:19:59;5.50;99.90
12817;DHT22;6473;51.552;6.716;2023-02-01T01:27:21;5.50;99.90
12817;DHT22;6473;51.552;6.716;2023-02-01T01:29:49;5.50;99.90
12817;DHT22;6473;51.552;6.716;2023-02-01T01:32:16;5.50;99.90
12817;DHT22;6473;51.552;6.716;2023-02-01T01:34:43;5.50;99.90
12817;DHT22;6473;51.552;6.716;2023-02-01T01:37:11;5.50;99.90
12817;DHT22;6473;51.552;6.716;2023-02-01T01:42:09;5.50;99.90
12817;DHT22;6473;51.552;6.716;2023-02-01T01:44:58;5.50;99.90
12817;DHT22;6473;51.552;6.716;2023-02-01T01:47:29;5.50;99.90
12817;DHT22;6473;51.552;6.716;2023-02-01T01:49:57;5.50;99.90
12817;DHT22;6473;51.552;6.716;2023-02-01T01:52:26;5.60;99.90
12817;DHT22;6473;51.552;6.716;2023-02-01T01:54:54;5.60;99.90
12817;DHT22;6473;51.552;6.716;2023-02-01T01:57:24;5.50;99.90
12817;DHT22;6473;51.552;6.716;2023-02-01T01:59:57;5.50;99.90
12817;DHT22;6473;51.552;6.716;2023-02-01T02:04:52;5.50;99.90
12817;DHT22;6473;51.552;6.716;2023-02-01T02:07:22;5.40;99.90
12817;DHT22;6473;51.552;6.716;2023-02-01T02:09:51;5.40;99.90
12817;DHT22;6473;51.552;6.716;2023-02-01T02:14:46;5.40;99.90
12817;DHT22;6473;51.552;6.716;2023-02-01T02:17:26;6.40;99.90
12817;DHT22;6473;51.552;6.716;2023-02-01T02:26:25;5.30;99.90
12817;DHT22;6473;51.552;6.716;2023-02-01T02:29:36;5.20;99.90
12817;DHT22;6473;51.552;6.716;2023-02-01T02:35:10;5.20;99.90
12817;DHT22;6473;51.552;6.716;2023-02-01T02:37:45;5.20;99.90
12817;DHT22;6473;51.552;6.716;2023-02-01T02:40:18;5.10;99.90
12817;DHT22;6473;51.552;6.716;2023-02-01T02:42:52;5.10;99.90
12817;DHT22;6473;51.552;6.716;2023-02-01T02:45:44;5.00;99.90
12817;DHT22;6473;51.552;6.716;2023-02-01T02:48:38;5.00;99.90
12817;DHT22;6473;51.552;6.716;2023-02-01T02:51:13;4.90;99.90
12817;DHT22;6473;51.552;6.716;2023-02-01T02:54:02;5.00;99.90
12817;DHT22;6473;51.552;6.716;2023-02-01T02:56:49;4.90;99.90
12817;DHT22;6473;51.552;6.716;2023-02-01T02:59:36;4.90;99.90
12817;DHT22;6473;51.552;6.716;2023-02-01T03:02:21;4.90;99.90
12817;DHT22;6473;51.552;6.716;2023-02-01T03:05:06;4.80;99.90
12817;DHT22;6473;51.552;6.716;2023-02-01T03:07:54;4.90;99.90
12817;DHT22;6473;51.552;6.716;2023-02-01T03:10:28;4.90;99.90
12817;DHT22;6473;51.552;6.716;2023-02-01T03:13:03;5.00;99.90
12817;DHT22;6473;51.552;6.716;2023-02-01T03:15:36;5.00;99.90
12817;DHT22;6473;51.552;6.716;2023-02-01T03:18:08;5.00;99.90
12817;DHT22;6473;51.552;6.716;2023-02-01T03:20:38;5.00;99.90
12817;DHT22;6473;51.552;6.716;2023-02-01T03:23:10;4.90;99.90
12817;DHT22;6473;51.552;6.716;2023-02-01T03:25:39;5.00;99.90
12817;DHT22;6473;51.552;6.716;2023-02-01T03:30:39;5.00;99.90
12817;DHT22;6473;51.552;6.716;2023-02-01T03:33:09;5.00;99.90
12817;DHT22;6473;51.552;6.716;2023-02-01T03:35:46;5.00;99.90
12817;DHT22;6473;51.552;6.716;2023-02-01T03:38:20;5.00;99.90
12817;DHT22;6473;51.552;6.716;2023-02-01T03:40:52;5.00;99.90
12817;DHT22;6473;51.552;6.716;2023-02-01T03:43:21;5.00;99.90
12817;DHT22;6473;51.552;6.716;2023-02-01T03:45:52;5.10;99.90
12817;DHT22;6473;51.552;6.716;2023-02-01T03:48:22;5.10;99.90
12817;DHT22;6473;51.552;6.716;2023-02-01T03:50:53;5.10;99.90
12817;DHT22;6473;51.552;6.716;2023-02-01T03:53:24;5.00;99.90
12817;DHT22;6473;51.552;6.716;2023-02-01T03:55:53;5.10;99.90
12817;DHT22;6473;51.552;6.716;2023-02-01T03:58:21;5.20;99.90
12817;DHT22;6473;51.552;6.716;2023-02-01T04:00:51;5.20;99.90
12817;DHT22;6473;51.552;6.716;2023-02-01T04:10:43;5.10;99.90
12817;DHT22;6473;51.552;6.716;2023-02-01T04:18:05;5.00;99.90
12817;DHT22;6473;51.552;6.716;2023-02-01T04:25:28;4.90;99.90
12817;DHT22;6473;51.552;6.716;2023-02-01T04:30:24;5.00;99.90
12817;DHT22;6473;51.552;6.716;2023-02-01T04:35:19;5.10;99.90
12817;DHT22;6473;51.552;6.716;2023-02-01T04:50:05;5.10;99.90
12817;DHT22;6473;51.552;6.716;2023-02-01T04:52:33;5.10;99.90
12817;DHT22;6473;51.552;6.716;2023-02-01T05:02:24;4.90;99.90
12817;DHT22;6473;51.552;6.716;2023-02-01T05:14:58;4.80;99.90
12817;DHT22;6473;51.552;6.716;2023-02-01T05:17:26;4.80;99.90
12817;DHT22;6473;51.552;6.716;2023-02-01T05:24:48;4.80;99.90
12817;DHT22;6473;51.552;6.716;2023-02-01T05:34:38;4.60;99.90
12817;DHT22;6473;51.552;6.716;2023-02-01T05:37:05;4.60;99.90
12817;DHT22;6473;51.552;6.716;2023-02-01T05:51:49;4.60;99.90
12817;DHT22;6473;51.552;6.716;2023-02-01T05:54:16;4.70;99.90
12817;DHT22;6473;51.552;6.716;2023-02-01T05:59:10;4.70;99.90
12817;DHT22;6473;51.552;6.716;2023-02-01T06:09:01;4.80;99.90
12817;DHT22;6473;51.552;6.716;2023-02-01T06:16:22;4.90;99.90
12817;DHT22;6473;51.552;6.716;2023-02-01T06:23:49;4.90;99.90
12817;DHT22;6473;51.552;6.716;2023-02-01T06:26:17;4.90;99.90
12817;DHT22;6473;51.552;6.716;2023-02-01T06:36:07;4.90;99.90
12817;DHT22;6473;51.552;6.716;2023-02-01T06:38:35;5.00;99.90
12817;DHT22;6473;51.552;6.716;2023-02-01T06:41:03;5.00;99.90
12817;DHT22;6473;51.552;6.716;2023-02-01T06:43:31;5.00;99.90
12817;DHT22;6473;51.552;6.716;2023-02-01T06:46:00;7.90;99.90
12817;DHT22;6473;51.552;6.716;2023-02-01T06:53:22;5.10;99.90
12817;DHT22;6473;51.552;6.716;2023-02-01T06:55:53;5.10;99.90
12817;DHT22;6473;51.552;6.716;2023-02-01T06:58:23;5.10;99.90
12817;DHT22;6473;51.552;6.716;2023-02-01T07:00:52;5.10;99.90
12817;DHT22;6473;51.552;6.716;2023-02-01T07:08:13;5.20;99.90
12817;DHT22;6473;51.552;6.716;2023-02-01T07:15:35;5.20;99.90
12817;DHT22;6473;51.552;6.716;2023-02-01T07:18:04;5.10;99.90
12817;DHT22;6473;51.552;6.716;2023-02-01T07:22:59;5.10;99.90
12817;DHT22;6473;51.552;6.716;2023-02-01T07:30:26;5.10;99.90
12817;DHT22;6473;51.552;6.716;2023-02-01T07:35:21;5.20;99.90
12817;DHT22;6473;51.552;6.716;2023-02-01T07:42:48;5.20;99.90
12817;DHT22;6473;51.552;6.716;2023-02-01T07:50:11;5.20;99.90
12817;DHT22;6473;51.552;6.716;2023-02-01T07:52:39;5.20;99.90
12817;DHT22;6473;51.552;6.716;2023-02-01T07:55:07;5.20;99.90
12817;DHT22;6473;51.552;6.716;2023-02-01T08:00:02;5.20;99.90
12817;DHT22;6473;51.552;6.716;2023-02-01T08:02:47;5.20;99.90
12817;DHT22;6473;51.552;6.716;2023-02-01T08:07:42;5.20;99.90
12817;DHT22;6473;51.552;6.716;2023-02-01T08:10:10;5.20;99.90
12817;DHT22;6473;51.552;6.716;2023-02-01T08:15:05;5.20;99.90
12817;DHT22;6473;51.552;6.716;2023-02-01T08:19:59;5.20;99.90
12817;DHT22;6473;51.552;6.716;2023-02-01T08:22:26;5.20;99.90
12817;DHT22;6473;51.552;6.716;2023-02-01T08:24:59;5.30;99.90
12817;DHT22;6473;51.552;6.716;2023-02-01T08:27:26;5.30;99.90
12817;DHT22;6473;51.552;6.716;2023-02-01T08:29:53;5.40;99.90
12817;DHT22;6473;51.552;6.716;2023-02-01T08:32:20;5.40;99.90
12817;DHT22;6473;51.552;6.716;2023-02-01T08:34:47;5.50;99.90
12817;DHT22;6473;51.552;6.716;2023-02-01T08:37:14;5.60;99.90
12817;DHT22;6473;51.552;6.716;2023-02-01T08:39:41;5.60;99.90
12817;DHT22;6473;51.552;6.716;2023-02-01T08:42:11;5.70;99.90
12817;DHT22;6473;51.552;6.716;2023-02-01T08:44:56;5.70;99.90
12817;DHT22;6473;51.552;6.716;2023-02-01T08:47:23;5.80;99.90
12817;DHT22;6473;51.552;6.716;2023-02-01T08:49:50;5.90;99.90
12817;DHT22;6473;51.552;6.716;2023-02-01T08:52:19;5.80;99.90
12817;DHT22;6473;51.552;6.716;2023-02-01T08:54:46;5.80;99.90
12817;DHT22;6473;51.552;6.716;2023-02-01T08:57:14;5.80;99.90
12817;DHT22;6473;51.552;6.716;2023-02-01T09:02:12;5.70;99.90
12817;DHT22;6473;51.552;6.716;2023-02-01T09:04:39;5.60;99.90
12817;DHT22;6473;51.552;6.716;2023-02-01T09:07:06;5.70;99.90
12817;DHT22;6473;51.552;6.716;2023-02-01T09:09:33;5.70;99.90
12817;DHT22;6473;51.552;6.716;2023-02-01T09:14:29;5.70;99.90
12817;DHT22;6473;51.552;6.716;2023-02-01T09:16:56;5.70;99.90
12817;DHT22;6473;51.552;6.716;2023-02-01T09:24:17;5.80;99.90
12817;DHT22;6473;51.552;6.716;2023-02-01T09:26:44;5.80;99.90
12817;DHT22;6473;51.552;6.716;2023-02-01T09:31:43;5.80;99.90
12817;DHT22;6473;51.552;6.716;2023-02-01T09:41:39;5.90;99.90
12817;DHT22;6473;51.552;6.716;2023-02-01T09:44:18;5.90;99.90
12817;DHT22;6473;51.552;6.716;2023-02-01T09:46:53;6.00;99.90
12817;DHT22;6473;51.552;6.716;2023-02-01T09:49:26;6.00;99.90
12817;DHT22;6473;51.552;6.716;2023-02-01T09:51:54;6.00;99.90
12817;DHT22;6473;51.552;6.716;2023-02-01T09:54:25;6.00;99.90
12817;DHT22;6473;51.552;6.716;2023-02-01T09:56:54;6.00;99.90
12817;DHT22;6473;51.552;6.716;2023-02-01T09:59:29;6.10;99.90
12817;DHT22;6473;51.552;6.716;2023-02-01T10:02:02;6.10;99.90
12817;DHT22;6473;51.552;6.716;2023-02-01T10:04:30;6.10;99.90
12817;DHT22;6473;51.552;6.716;2023-02-01T10:07:10;6.20;99.90
12817;DHT22;6473;51.552;6.716;2023-02-01T10:09:50;6.20;99.90
12817;DHT22;6473;51.552;6.716;2023-02-01T10:12:54;6.20;99.90
12817;DHT22;6473;51.552;6.716;2023-02-01T10:15:34;6.30;99.90
12817;DHT22;6473;51.552;6.716;2023-02-01T10:18:25;6.30;99.90
12817;DHT22;6473;51.552;6.716;2023-02-01T10:21:00;6.30;99.90
12817;DHT22;6473;51.552;6.716;2023-02-01T10:26:25;6.40;99.90
12817;DHT22;6473;51.552;6.716;2023-02-01T10:28:54;6.40;99.90
12817;DHT22;6473;51.552;6.716;2023-02-01T10:31:25;6.40;99.90
12817;DHT22;6473;51.552;6.716;2023-02-01T10:33:56;6.40;99.90
12817;DHT22;6473;51.552;6.716;2023-02-01T10:36:29;6.40;99.90
12817;DHT22;6473;51.552;6.716;2023-02-01T10:38:58;6.50;99.90
12817;DHT22;6473;51.552;6.716;2023-02-01T10:41:30;6.60;99.90
12817;DHT22;6473;51.552;6.716;2023-02-01T10:43:58;6.70;99.90
12817;DHT22;6473;51.552;6.716;2023-02-01T10:46:26;6.70;99.90
12817;DHT22;6473;51.552;6.716;2023-02-01T10:48:56;6.70;99.90
12817;DHT22;6473;51.552;6.716;2023-02-01T10:51:29;6.70;99.90
12817;DHT22;6473;51.552;6.716;2023-02-01T10:53:59;6.60;99.90
12817;DHT22;6473;51.552;6.716;2023-02-01T10:56:28;6.70;99.90
12817;DHT22;6473;51.552;6.716;2023-02-01T10:59:01;6.80;99.90
12817;DHT22;6473;51.552;6.716;2023-02-01T11:01:31;6.90;99.90
12817;DHT22;6473;51.552;6.716;2023-02-01T11:04:02;6.90;99.90
12817;DHT22;6473;51.552;6.716;2023-02-01T11:06:32;7.00;99.90
12817;DHT22;6473;51.552;6.716;2023-02-01T11:09:01;7.00;99.90
12817;DHT22;6473;51.552;6.716;2023-02-01T11:11:53;7.00;99.90
12817;DHT22;6473;51.552;6.716;2023-02-01T11:14:27;7.00;99.90
12817;DHT22;6473;51.552;6.716;2023-02-01T11:16:57;6.90;99.90
12817;DHT22;6473;51.552;6.716;2023-02-01T11:19:26;6.90;99.90
12817;DHT22;6473;51.552;6.716;2023-02-01T11:21:54;6.90;99.90
12817;DHT22;6473;51.552;6.716;2023-02-01T11:24:24;6.90;99.90
12817;DHT22;6473;51.552;6.716;2023-02-01T11:26:55;6.90;99.90
12817;DHT22;6473;51.552;6.716;2023-02-01T11:29:24;7.00;99.90
12817;DHT22;6473;51.552;6.716;2023-02-01T11:31:56;7.00;99.90
12817;DHT22;6473;51.552;6.716;2023-02-01T11:34:28;7.00;99.90
12817;DHT22;6473;51.552;6.716;2023-02-01T11:36:59;6.90;99.90
12817;DHT22;6473;51.552;6.716;2023-02-01T11:39:30;6.90;99.90
12817;DHT22;6473;51.552;6.716;2023-02-01T11:42:01;6.70;99.90
12817;DHT22;6473;51.552;6.716;2023-02-01T11:44:33;6.60;99.90
12817;DHT22;6473;51.552;6.716;2023-02-01T11:47:20;6.40;99.90
12817;DHT22;6473;51.552;6.716;2023-02-01T11:49:50;6.40;99.90
12817;DHT22;6473;51.552;6.716;2023-02-01T11:52:28;6.40;99.90
12817;DHT22;6473;51.552;6.716;2023-02-01T11:55:06;6.40;99.90
12817;DHT22;6473;51.552;6.716;2023-02-01T11:57:50;6.40;99.90
12817;DHT22;6473;51.552;6.716;2023-02-01T12:00:32;6.50;99.90
12817;DHT22;6473;51.552;6.716;2023-02-01T12:03:39;6.50;99.90
12817;DHT22;6473;51.552;6.716;2023-02-01T12:06:17;6.50;99.90
12817;DHT22;6473;51.552;6.716;2023-02-01T12:09:20;6.60;99.90
12817;DHT22;6473;51.552;6.716;2023-02-01T12:11:58;6.70;99.90
12817;DHT22;6473;51.552;6.716;2023-02-01T12:14:43;6.80;99.90
12817;DHT22;6473;51.552;6.716;2023-02-01T12:23:20;7.10;99.90
12817;DHT22;6473;51.552;6.716;2023-02-01T12:26:03;7.10;99.90
12817;DHT22;6473;51.552;6.716;2023-02-01T12:31:51;7.20;99.90
12817;DHT22;6473;51.552;6.716;2023-02-01T12:34:48;7.20;99.90
12817;DHT22;6473;51.552;6.716;2023-02-01T12:37:24;7.20;99.90
12817;DHT22;6473;51.552;6.716;2023-02-01T12:40:01;7.30;99.90
12817;DHT22;6473;51.552;6.716;2023-02-01T12:42:33;7.20;99.90
12817;DHT22;6473;51.552;6.716;2023-02-01T12:45:10;7.20;99.90
12817;DHT22;6473;51.552;6.716;2023-02-01T12:47:40;7.20;99.90
12817;DHT22;6473;51.552;6.716;2023-02-01T12:50:14;7.20;99.90
12817;DHT22;6473;51.552;6.716;2023-02-01T12:52:49;7.20;99.90
12817;DHT22;6473;51.552;6.716;2023-02-01T12:55:21;7.20;99.90
12817;DHT22;6473;51.552;6.716;2023-02-01T12:57:51;7.20;99.90
12817;DHT22;6473;51.552;6.716;2023-02-01T13:00:23;7.20;99.90
12817;DHT22;6473;51.552;6.716;2023-02-01T13:02:59;7.10;99.90
12817;DHT22;6473;51.552;6.716;2023-02-01T13:05:31;7.20;99.90
12817;DHT22;6473;51.552;6.716;2023-02-01T13:08:04;7.20;99.90
12817;DHT22;6473;51.552;6.716;2023-02-01T13:10:36;7.20;99.90
12817;DHT22;6473;51.552;6.716;2023-02-01T13:13:11;7.30;99.90
12817;DHT22;6473;51.552;6.716;2023-02-01T13:15:45;7.30;99.90
12817;DHT22;6473;51.552;6.716;2023-02-01T13:18:15;7.40;99.90
12817;DHT22;6473;51.552;6.716;2023-02-01T13:20:49;7.50;99.90
12817;DHT22;6473;51.552;6.716;2023-02-01T13:23:23;7.50;99.90
12817;DHT22;6473;51.552;6.716;2023-02-01T13:25:54;7.50;99.90
12817;DHT22;6473;51.552;6.716;2023-02-01T13:28:25;7.50;99.90
12817;DHT22;6473;51.552;6.716;2023-02-01T13:31:15;7.60;99.90
12817;DHT22;6473;51.552;6.716;2023-02-01T13:33:56;7.60;99.90
12817;DHT22;6473;51.552;6.716;2023-02-01T13:36:40;7.60;99.90
12817;DHT22;6473;51.552;6.716;2023-02-01T13:39:34;7.60;99.90
12817;DHT22;6473;51.552;6.716;2023-02-01T13:42:11;7.60;99.90
12817;DHT22;6473;51.552;6.716;2023-02-01T13:44:43;7.60;99.90
12817;DHT22;6473;51.552;6.716;2023-02-01T13:47:18;7.60;99.90
12817;DHT22;6473;51.552;6.716;2023-02-01T13:49:48;7.60;99.90
12817;DHT22;6473;51.552;6.716;2023-02-01T13:52:36;7.60;99.90
12817;DHT22;6473;51.552;6.716;2023-02-01T13:55:16;7.60;99.90
12817;DHT22;6473;51.552;6.716;2023-02-01T13:57:58;7.60;99.90
12817;DHT22;6473;51.552;6.716;2023-02-01T14:00:29;7.70;99.90
12817;DHT22;6473;51.552;6.716;2023-02-01T14:03:18;7.70;99.90
12817;DHT22;6473;51.552;6.716;2023-02-01T14:06:05;7.70;99.90
12817;DHT22;6473;51.552;6.716;2023-02-01T14:09:05;7.70;99.90
12817;DHT22;6473;51.552;6.716;2023-02-01T14:11:40;7.70;99.90
12817;DHT22;6473;51.552;6.716;2023-02-01T14:17:41;7.70;99.90
12817;DHT22;6473;51.552;6.716;2023-02-01T14:23:28;7.80;99.90
12817;DHT22;6473;51.552;6.716;2023-02-01T14:26:18;7.80;99.90
12817;DHT22;6473;51.552;6.716;2023-02-01T14:29:00;7.80;99.90
12817;DHT22;6473;51.552;6.716;2023-02-01T14:31:52;7.80;99.90
12817;DHT22;6473;51.552;6.716;2023-02-01T14:34:28;7.90;99.90
12817;DHT22;6473;51.552;6.716;2023-02-01T14:36:57;7.80;99.90
12817;DHT22;6473;51.552;6.716;2023-02-01T14:39:34;7.80;99.90
12817;DHT22;6473;51.552;6.716;2023-02-01T14:42:05;7.80;99.90
12817;DHT22;6473;51.552;6.716;2023-02-01T14:44:39;7.80;99.90
12817;DHT22;6473;51.552;6.716;2023-02-01T14:47:28;7.80;99.90
12817;DHT22;6473;51.552;6.716;2023-02-01T14:50:21;7.70;99.90
12817;DHT22;6473;51.552;6.716;2023-02-01T14:52:59;7.70;99.90
12817;DHT22;6473;51.552;6.716;2023-02-01T14:55:34;7.70;99.90
12817;DHT22;6473;51.552;6.716;2023-02-01T14:58:05;7.70;99.90
12817;DHT22;6473;51.552;6.716;2023-02-01T15:00:33;7.70;99.90
12817;DHT22;6473;51.552;6.716;2023-02-01T15:03:33;7.80;99.90
12817;DHT22;6473;51.552;6.716;2023-02-01T15:06:03;7.70;99.90
12817;DHT22;6473;51.552;6.716;2023-02-01T15:08:33;7.80;99.90
12817;DHT22;6473;51.552;6.716;2023-02-01T15:11:05;7.80;99.90
12817;DHT22;6473;51.552;6.716;2023-02-01T15:13:33;7.80;99.90
12817;DHT22;6473;51.552;6.716;2023-02-01T15:16:05;7.80;99.90
12817;DHT22;6473;51.552;6.716;2023-02-01T15:18:33;7.80;99.90
12817;DHT22;6473;51.552;6.716;2023-02-01T15:21:02;7.80;99.90
12817;DHT22;6473;51.552;6.716;2023-02-01T15:23:32;7.80;99.90
12817;DHT22;6473;51.552;6.716;2023-02-01T15:25:59;7.80;99.90
12817;DHT22;6473;51.552;6.716;2023-02-01T15:28:26;7.80;99.90
12817;DHT22;6473;51.552;6.716;2023-02-01T15:30:59;7.80;99.90
12817;DHT22;6473;51.552;6.716;2023-02-01T15:33:27;7.80;99.90
12817;DHT22;6473;51.552;6.716;2023-02-01T15:35:55;7.70;99.90
12817;DHT22;6473;51.552;6.716;2023-02-01T15:38:36;7.80;99.90
12817;DHT22;6473;51.552;6.716;2023-02-01T15:41:09;7.80;99.90
12817;DHT22;6473;51.552;6.716;2023-02-01T15:43:39;7.80;99.90
12817;DHT22;6473;51.552;6.716;2023-02-01T15:46:09;7.80;99.90
12817;DHT22;6473;51.552;6.716;2023-02-01T15:48:42;7.70;99.90
12817;DHT22;6473;51.552;6.716;2023-02-01T15:51:18;7.70;99.90
12817;DHT22;6473;51.552;6.716;2023-02-01T15:53:51;7.70;99.90
12817;DHT22;6473;51.552;6.716;2023-02-01T15:56:26;7.70;99.90
12817;DHT22;6473;51.552;6.716;2023-02-01T15:58:56;7.70;99.90
12817;DHT22;6473;51.552;6.716;2023-02-01T16:01:24;7.70;99.90
12817;DHT22;6473;51.552;6.716;2023-02-01T16:04:02;7.70;99.90
12817;DHT22;6473;51.552;6.716;2023-02-01T16:06:31;7.70;99.90
12817;DHT22;6473;51.552;6.716;2023-02-01T16:09:09;7.70;99.90
12817;DHT22;6473;51.552;6.716;2023-02-01T16:11:46;7.70;99.90
12817;DHT22;6473;51.552;6.716;2023-02-01T16:14:13;7.60;99.90
12817;DHT22;6473;51.552;6.716;2023-02-01T16:16:40;7.40;99.90
12817;DHT22;6473;51.552;6.716;2023-02-01T16:19:07;7.30;99.90
12817;DHT22;6473;51.552;6.716;2023-02-01T16:21:34;7.20;99.90
12817;DHT22;6473;51.552;6.716;2023-02-01T16:24:02;7.10;99.90
12817;DHT22;6473;51.552;6.716;2023-02-01T16:26:30;7.10;99.90
12817;DHT22;6473;51.552;6.716;2023-02-01T16:28:58;7.20;99.90
12817;DHT22;6473;51.552;6.716;2023-02-01T16:31:28;7.20;99.90
12817;DHT22;6473;51.552;6.716;2023-02-01T16:33:56;7.20;99.90
12817;DHT22;6473;51.552;6.716;2023-02-01T16:36:24;7.20;99.90
12817;DHT22;6473;51.552;6.716;2023-02-01T16:38:52;7.20;99.90
12817;DHT22;6473;51.552;6.716;2023-02-01T16:41:22;7.30;99.90
12817;DHT22;6473;51.552;6.716;2023-02-01T16:43:51;7.30;99.90
12817;DHT22;6473;51.552;6.716;2023-02-01T16:46:20;7.40;99.90
12817;DHT22;6473;51.552;6.716;2023-02-01T16:48:52;7.40;99.90
12817;DHT22;6473;51.552;6.716;2023-02-01T16:51:19;7.40;99.90
12817;DHT22;6473;51.552;6.716;2023-02-01T16:53:46;7.40;99.90
12817;DHT22;6473;51.552;6.716;2023-02-01T16:56:15;7.50;99.90
12817;DHT22;6473;51.552;6.716;2023-02-01T16:58:44;7.50;99.90
12817;DHT22;6473;51.552;6.716;2023-02-01T17:01:11;7.50;99.90
12817;DHT22;6473;51.552;6.716;2023-02-01T17:03:39;7.50;99.90
12817;DHT22;6473;51.552;6.716;2023-02-01T17:06:08;7.50;99.90
12817;DHT22;6473;51.552;6.716;2023-02-01T17:08:39;7.50;99.90
12817;DHT22;6473;51.552;6.716;2023-02-01T17:11:07;7.50;99.90
12817;DHT22;6473;51.552;6.716;2023-02-01T17:13:34;7.50;99.90
12817;DHT22;6473;51.552;6.716;2023-02-01T17:16:05;7.50;99.90
12817;DHT22;6473;51.552;6.716;2023-02-01T17:18:35;7.50;99.90
12817;DHT22;6473;51.552;6.716;2023-02-01T17:21:03;7.60;99.90
12817;DHT22;6473;51.552;6.716;2023-02-01T17:23:31;7.60;99.90
12817;DHT22;6473;51.552;6.716;2023-02-01T17:25:59;7.60;99.90
12817;DHT22;6473;51.552;6.716;2023-02-01T17:28:26;7.60;99.90
12817;DHT22;6473;51.552;6.716;2023-02-01T17:30:54;7.60;99.90
12817;DHT22;6473;51.552;6.716;2023-02-01T17:33:27;7.60;99.90
12817;DHT22;6473;51.552;6.716;2023-02-01T17:35:56;7.70;99.90
12817;DHT22;6473;51.552;6.716;2023-02-01T17:38:24;7.60;99.90
12817;DHT22;6473;51.552;6.716;2023-02-01T17:40:51;7.60;99.90
12817;DHT22;6473;51.552;6.716;2023-02-01T17:43:21;7.60;99.90
12817;DHT22;6473;51.552;6.716;2023-02-01T17:45:50;7.60;99.90
12817;DHT22;6473;51.552;6.716;2023-02-01T17:48:18;7.60;99.90
12817;DHT22;6473;51.552;6.716;2023-02-01T17:50:47;7.60;99.90
12817;DHT22;6473;51.552;6.716;2023-02-01T17:53:19;7.50;99.90
12817;DHT22;6473;51.552;6.716;2023-02-01T17:55:49;7.50;99.90
12817;DHT22;6473;51.552;6.716;2023-02-01T17:58:17;7.50;99.90
12817;DHT22;6473;51.552;6.716;2023-02-01T18:00:45;7.40;99.90
12817;DHT22;6473;51.552;6.716;2023-02-01T18:03:20;7.40;99.90
12817;DHT22;6473;51.552;6.716;2023-02-01T18:05:50;7.30;99.90
12817;DHT22;6473;51.552;6.716;2023-02-01T18:08:19;7.30;99.90
12817;DHT22;6473;51.552;6.716;2023-02-01T18:10:51;7.30;99.90
12817;DHT22;6473;51.552;6.716;2023-02-01T18:13:19;7.30;99.90
12817;DHT22;6473;51.552;6.716;2023-02-01T18:15:46;7.40;99.90
12817;DHT22;6473;51.552;6.716;2023-02-01T18:18:13;7.30;99.90
12817;DHT22;6473;51.552;6.716;2023-02-01T18:20:42;7.40;99.90
12817;DHT22;6473;51.552;6.716;2023-02-01T18:23:14;7.30;99.90
12817;DHT22;6473;51.552;6.716;2023-02-01T18:25:42;7.30;99.90
12817;DHT22;6473;51.552;6.716;2023-02-01T18:28:11;7.30;99.90
12817;DHT22;6473;51.552;6.716;2023-02-01T18:30:43;7.40;99.90
12817;DHT22;6473;51.552;6.716;2023-02-01T18:33:12;7.40;99.90
12817;DHT22;6473;51.552;6.716;2023-02-01T18:38:09;7.40;99.90
12817;DHT22;6473;51.552;6.716;2023-02-01T18:40:45;7.40;99.90
12817;DHT22;6473;51.552;6.716;2023-02-01T18:43:16;7.40;99.90
12817;DHT22;6473;51.552;6.716;2023-02-01T18:45:45;7.50;99.90
12817;DHT22;6473;51.552;6.716;2023-02-01T18:48:16;7.50;99.90
12817;DHT22;6473;51.552;6.716;2023-02-01T18:53:18;7.50;99.90
12817;DHT22;6473;51.552;6.716;2023-02-01T18:55:52;7.40;99.90
12817;DHT22;6473;51.552;6.716;2023-02-01T19:00:51;7.50;99.90
12817;DHT22;6473;51.552;6.716;2023-02-01T19:05:51;7.40;99.90
12817;DHT22;6473;51.552;6.716;2023-02-01T19:08:17;7.40;99.90
12817;DHT22;6473;51.552;6.716;2023-02-01T19:13:16;7.40;99.90
12817;DHT22;6473;51.552;6.716;2023-02-01T19:20:45;7.30;99.90
12817;DHT22;6473;51.552;6.716;2023-02-01T19:25:44;7.20;99.90
12817;DHT22;6473;51.552;6.716;2023-02-01T19:28:11;7.10;99.90
12817;DHT22;6473;51.552;6.716;2023-02-01T19:30:40;7.00;99.90
12817;DHT22;6473;51.552;6.716;2023-02-01T19:33:07;6.90;99.90
12817;DHT22;6473;51.552;6.716;2023-02-01T19:38:03;6.80;99.90
12817;DHT22;6473;51.552;6.716;2023-02-01T19:45:29;6.50;99.90
12817;DHT22;6473;51.552;6.716;2023-02-01T19:48:05;5.80;99.90
12817;DHT22;6473;51.552;6.716;2023-02-01T19:53:01;4.80;99.90
12817;DHT22;6473;51.552;6.716;2023-02-01T20:00:31;4.60;99.90
12817;DHT22;6473;51.552;6.716;2023-02-01T20:05:28;4.60;99.90
12817;DHT22;6473;51.552;6.716;2023-02-01T20:07:55;4.60;99.90
12817;DHT22;6473;51.552;6.716;2023-02-01T20:20:11;4.50;99.90
12817;DHT22;6473;51.552;6.716;2023-02-01T20:22:40;4.30;99.90
12817;DHT22;6473;51.552;6.716;2023-02-01T20:25:07;4.50;99.90
12817;DHT22;6473;51.552;6.716;2023-02-01T20:30:05;4.50;99.90
12817;DHT22;6473;51.552;6.716;2023-02-01T20:39:55;4.20;99.90
12817;DHT22;6473;51.552;6.716;2023-02-01T20:57:07;4.20;99.90
12817;DHT22;6473;51.552;6.716;2023-02-01T21:14:23;4.60;99.90
12817;DHT22;6473;51.552;6.716;2023-02-01T21:24:12;4.70;99.90
12817;DHT22;6473;51.552;6.716;2023-02-01T21:29:07;4.90;99.90
12817;DHT22;6473;51.552;6.716;2023-02-01T21:31:36;4.80;99.90
12817;DHT22;6473;51.552;6.716;2023-02-01T21:41:31;4.90;99.90
12817;DHT22;6473;51.552;6.716;2023-02-01T21:46:44;4.90;99.90
12817;DHT22;6473;51.552;6.716;2023-02-01T21:54:06;4.90;99.90
12817;DHT22;6473;51.552;6.716;2023-02-01T22:03:57;4.90;99.90
12817;DHT22;6473;51.552;6.716;2023-02-01T22:06:26;4.90;99.90
12817;DHT22;6473;51.552;6.716;2023-02-01T22:18:46;4.90;99.90
12817;DHT22;6473;51.552;6.716;2023-02-01T22:21:14;4.90;99.90
12817;DHT22;6473;51.552;6.716;2023-02-01T22:26:11;5.00;99.90
12817;DHT22;6473;51.552;6.716;2023-02-01T22:28:39;5.80;99.90
12817;DHT22;6473;51.552;6.716;2023-02-01T22:31:07;8.00;99.90
12817;DHT22;6473;51.552;6.716;2023-02-01T22:36:04;5.00;99.90
12817;DHT22;6473;51.552;6.716;2023-02-01T22:38:34;4.90;99.90
12817;DHT22;6473;51.552;6.716;2023-02-01T22:41:03;4.90;99.90
12817;DHT22;6473;51.552;6.716;2023-02-01T22:45:58;5.00;99.90
12817;DHT22;6473;51.552;6.716;2023-02-01T22:50:55;5.00;99.90
12817;DHT22;6473;51.552;6.716;2023-02-01T22:55:51;5.00;99.90
12817;DHT22;6473;51.552;6.716;2023-02-01T23:13:03;5.30;99.90
12817;DHT22;6473;51.552;6.716;2023-02-01T23:20:25;5.40;99.90
12817;DHT22;6473;51.552;6.716;2023-02-01T23:22:52;5.50;99.90
12817;DHT22;6473;51.552;6.716;2023-02-01T23:25:19;9.40;99.90